sensor_id;sensor_type;location;lat;lon;timestamp;pressure;altitude;pressure_sealevel;temperature;humidity
48563;BME280;34981;49.104;11.396;2023-04-28T00:00:19;95907.63;;;7.85;100.00
48563;BME280;34981;49.104;11.396;2023-04-28T00:02:47;95893.69;;;7.82;100.00
48563;BME280;34981;49.104;11.396;2023-04-28T00:05:15;95892.59;;;7.78;100.00
48563;BME280;34981;49.104;11.396;2023-04-28T00:07:42;95879.22;;;7.78;100.00
48563;BME280;34981;49.104;11.396;2023-04-28T00:10:09;95863.44;;;7.82;100.00
48563;BME280;34981;49.104;11.396;2023-04-28T00:12:37;95852.25;;;7.85;100.00
48563;BME280;34981;49.104;11.396;2023-04-28T00:15:04;95849.81;;;7.83;100.00
48563;BME280;34981;49.104;11.396;2023-04-28T00:17:31;95835.91;;;7.81;100.00
48563;BME280;34981;49.104;11.396;2023-04-28T00:19:58;95836.69;;;7.82;100.00
48563;BME280;34981;49.104;11.396;2023-04-28T00:22:26;95838.03;;;7.85;100.00
48563;BME280;34981;49.104;11.396;2023-04-28T00:24:53;95826.28;;;7.86;100.00
48563;BME280;34981;49.104;11.396;2023-04-28T00:27:20;95796.59;;;7.87;100.00
48563;BME280;34981;49.104;11.396;2023-04-28T00:29:47;95785.59;;;7.83;100.00
48563;BME280;34981;49.104;11.396;2023-04-28T00:32:14;95761.47;;;7.78;100.00
48563;BME280;34981;49.104;11.396;2023-04-28T00:34:41;95749.41;;;7.76;100.00
48563;BME280;34981;49.104;11.396;2023-04-28T00:37:08;95743.53;;;7.74;100.00
48563;BME280;34981;49.104;11.396;2023-04-28T00:39:36;95733.59;;;7.74;100.00
48563;BME280;34981;49.104;11.396;2023-04-28T00:42:03;95712.19;;;7.74;100.00
48563;BME280;34981;49.104;11.396;2023-04-28T00:44:30;95695.88;;;7.76;100.00
48563;BME280;34981;49.104;11.396;2023-04-28T00:46:58;95684.94;;;7.77;100.00
48563;BME280;34981;49.104;11.396;2023-04-28T00:49:25;95663.78;;;7.76;100.00
48563;BME280;34981;49.104;11.396;2023-04-28T00:51:52;95652.25;;;7.70;100.00
48563;BME280;34981;49.104;11.396;2023-04-28T00:54:19;95622.81;;;7.70;100.00
48563;BME280;34981;49.104;11.396;2023-04-28T00:56:47;95593.63;;;7.69;100.00
48563;BME280;34981;49.104;11.396;2023-04-28T00:59:14;95669.34;;;7.64;100.00
48563;BME280;34981;49.104;11.396;2023-04-28T01:01:42;95954.53;;;7.65;100.00
48563;BME280;34981;49.104;11.396;2023-04-28T01:04:09;96091.03;;;7.70;100.00
48563;BME280;34981;49.104;11.396;2023-04-28T01:06:39;96047.75;;;7.73;100.00
48563;BME280;34981;49.104;11.396;2023-04-28T01:09:07;95630.50;;;7.57;100.00
48563;BME280;34981;49.104;11.396;2023-04-28T01:11:35;95412.50;;;7.54;100.00
48563;BME280;34981;49.104;11.396;2023-04-28T01:14:09;95360.63;;;7.65;100.00
48563;BME280;34981;49.104;11.396;2023-04-28T01:16:38;95358.50;;;7.72;100.00
48563;BME280;34981;49.104;11.396;2023-04-28T01:19:07;95338.72;;;7.73;100.00
48563;BME280;34981;49.104;11.396;2023-04-28T01:21:36;95388.47;;;7.64;100.00
48563;BME280;34981;49.104;11.396;2023-04-28T01:24:14;95472.72;;;7.67;100.00
48563;BME280;34981;49.104;11.396;2023-04-28T01:26:42;95544.66;;;7.58;100.00
48563;BME280;34981;49.104;11.396;2023-04-28T01:29:10;95641.19;;;7.57;100.00
48563;BME280;34981;49.104;11.396;2023-04-28T01:31:37;95737.03;;;7.65;100.00
48563;BME280;34981;49.104;11.396;2023-04-28T01:34:04;95790.56;;;7.70;100.00
48563;BME280;34981;49.104;11.396;2023-04-28T01:36:32;95821.13;;;7.74;100.00
48563;BME280;34981;49.104;11.396;2023-04-28T01:39:03;95832.06;;;7.72;100.00
48563;BME280;34981;49.104;11.396;2023-04-28T01:41:32;95859.84;;;7.66;100.00
48563;BME280;34981;49.104;11.396;2023-04-28T01:44:00;95921.50;;;7.55;100.00
48563;BME280;34981;49.104;11.396;2023-04-28T01:46:27;95959.00;;;7.60;100.00
48563;BME280;34981;49.104;11.396;2023-04-28T01:48:54;95961.66;;;7.60;100.00
48563;BME280;34981;49.104;11.396;2023-04-28T01:51:22;95998.88;;;7.61;100.00
48563;BME280;34981;49.104;11.396;2023-04-28T01:53:49;96022.78;;;7.68;100.00
48563;BME280;34981;49.104;11.396;2023-04-28T01:56:16;96027.31;;;7.67;100.00
48563;BME280;34981;49.104;11.396;2023-04-28T01:58:43;96058.31;;;7.63;100.00
48563;BME280;34981;49.104;11.396;2023-04-28T02:01:12;96081.34;;;7.64;100.00
48563;BME280;34981;49.104;11.396;2023-04-28T02:03:39;96113.09;;;7.61;100.00
48563;BME280;34981;49.104;11.396;2023-04-28T02:06:06;96157.41;;;7.52;100.00
48563;BME280;34981;49.104;11.396;2023-04-28T02:08:34;96232.31;;;7.52;100.00
48563;BME280;34981;49.104;11.396;2023-04-28T02:11:02;96242.34;;;7.61;100.00
48563;BME280;34981;49.104;11.396;2023-04-28T02:13:30;96263.19;;;7.59;100.00
48563;BME280;34981;49.104;11.396;2023-04-28T02:16:00;96281.56;;;7.56;100.00
48563;BME280;34981;49.104;11.396;2023-04-28T02:18:28;96313.84;;;7.49;100.00
48563;BME280;34981;49.104;11.396;2023-04-28T02:21:07;96348.81;;;7.59;100.00
48563;BME280;34981;49.104;11.396;2023-04-28T02:23:34;96343.31;;;7.66;100.00
48563;BME280;34981;49.104;11.396;2023-04-28T02:26:04;96330.16;;;7.64;100.00
48563;BME280;34981;49.104;11.396;2023-04-28T02:28:31;96339.81;;;7.65;100.00
48563;BME280;34981;49.104;11.396;2023-04-28T02:31:02;96330.72;;;7.66;100.00
48563;BME280;34981;49.104;11.396;2023-04-28T02:33:29;96336.63;;;7.68;100.00
48563;BME280;34981;49.104;11.396;2023-04-28T02:36:00;96315.50;;;7.67;100.00
48563;BME280;34981;49.104;11.396;2023-04-28T02:38:27;96342.88;;;7.57;100.00
48563;BME280;34981;49.104;11.396;2023-04-28T02:41:04;96374.47;;;7.60;100.00
48563;BME280;34981;49.104;11.396;2023-04-28T02:43:32;96350.97;;;7.62;100.00
48563;BME280;34981;49.104;11.396;2023-04-28T02:46:00;96358.94;;;7.57;100.00
48563;BME280;34981;49.104;11.396;2023-04-28T02:48:28;96371.72;;;7.55;100.00
48563;BME280;34981;49.104;11.396;2023-04-28T02:50:55;96396.41;;;7.46;100.00
48563;BME280;34981;49.104;11.396;2023-04-28T02:53:22;96432.97;;;7.40;100.00
48563;BME280;34981;49.104;11.396;2023-04-28T02:55:49;96441.09;;;7.45;100.00
48563;BME280;34981;49.104;11.396;2023-04-28T02:58:16;96448.88;;;7.47;100.00
48563;BME280;34981;49.104;11.396;2023-04-28T03:00:45;96456.56;;;7.43;100.00
48563;BME280;34981;49.104;11.396;2023-04-28T03:03:13;96448.06;;;7.46;100.00
48563;BME280;34981;49.104;11.396;2023-04-28T03:05:41;96445.88;;;7.43;100.00
48563;BME280;34981;49.104;11.396;2023-04-28T03:08:08;96451.44;;;7.41;100.00
48563;BME280;34981;49.104;11.396;2023-04-28T03:10:35;96452.63;;;7.34;100.00
48563;BME280;34981;49.104;11.396;2023-04-28T03:13:05;96462.19;;;7.30;100.00
48563;BME280;34981;49.104;11.396;2023-04-28T03:15:32;96469.34;;;7.41;100.00
48563;BME280;34981;49.104;11.396;2023-04-28T03:17:59;96472.50;;;7.38;100.00
48563;BME280;34981;49.104;11.396;2023-04-28T03:20:28;96484.72;;;7.34;100.00
48563;BME280;34981;49.104;11.396;2023-04-28T03:22:55;96510.75;;;7.38;100.00
48563;BME280;34981;49.104;11.396;2023-04-28T03:25:22;96498.19;;;7.39;100.00
48563;BME280;34981;49.104;11.396;2023-04-28T03:27:50;96506.22;;;7.39;100.00
48563;BME280;34981;49.104;11.396;2023-04-28T03:30:18;96503.31;;;7.40;100.00
48563;BME280;34981;49.104;11.396;2023-04-28T03:32:45;96504.47;;;7.45;100.00
48563;BME280;34981;49.104;11.396;2023-04-28T03:35:13;96478.56;;;7.45;100.00
48563;BME280;34981;49.104;11.396;2023-04-28T03:37:42;96478.91;;;7.37;100.00
48563;BME280;34981;49.104;11.396;2023-04-28T03:40:09;96519.16;;;7.30;100.00
48563;BME280;34981;49.104;11.396;2023-04-28T03:42:53;96533.44;;;7.36;100.00
48563;BME280;34981;49.104;11.396;2023-04-28T03:45:31;96533.69;;;7.34;100.00
48563;BME280;34981;49.104;11.396;2023-04-28T03:47:58;96544.97;;;7.36;100.00
48563;BME280;34981;49.104;11.396;2023-04-28T03:50:25;96564.38;;;7.32;100.00
48563;BME280;34981;49.104;11.396;2023-04-28T03:52:53;96565.53;;;7.36;100.00
48563;BME280;34981;49.104;11.396;2023-04-28T03:55:21;96575.44;;;7.35;100.00
48563;BME280;34981;49.104;11.396;2023-04-28T03:57:50;96573.56;;;7.36;100.00
48563;BME280;34981;49.104;11.396;2023-04-28T04:00:18;96577.28;;;7.35;100.00
48563;BME280;34981;49.104;11.396;2023-04-28T04:02:47;96586.13;;;7.35;100.00
48563;BME280;34981;49.104;11.396;2023-04-28T04:05:15;96602.63;;;7.32;100.00
48563;BME280;34981;49.104;11.396;2023-04-28T04:07:42;96600.19;;;7.31;100.00
48563;BME280;34981;49.104;11.396;2023-04-28T04:10:09;96595.31;;;7.28;100.00
48563;BME280;34981;49.104;11.396;2023-04-28T04:12:39;96624.25;;;7.31;100.00
48563;BME280;34981;49.104;11.396;2023-04-28T04:15:07;96627.38;;;7.39;100.00
48563;BME280;34981;49.104;11.396;2023-04-28T04:17:35;96600.41;;;7.41;100.00
48563;BME280;34981;49.104;11.396;2023-04-28T04:20:02;96581.09;;;7.39;100.00
48563;BME280;34981;49.104;11.396;2023-04-28T04:22:30;96579.47;;;7.38;100.00
48563;BME280;34981;49.104;11.396;2023-04-28T04:24:57;96562.97;;;7.41;100.00
48563;BME280;34981;49.104;11.396;2023-04-28T04:27:24;96546.81;;;7.36;100.00
48563;BME280;34981;49.104;11.396;2023-04-28T04:29:52;96540.16;;;7.38;100.00
48563;BME280;34981;49.104;11.396;2023-04-28T04:32:19;96537.75;;;7.37;100.00
48563;BME280;34981;49.104;11.396;2023-04-28T04:34:46;96555.41;;;7.38;100.00
48563;BME280;34981;49.104;11.396;2023-04-28T04:37:13;96587.75;;;7.36;100.00
48563;BME280;34981;49.104;11.396;2023-04-28T04:39:50;96596.81;;;7.35;100.00
48563;BME280;34981;49.104;11.396;2023-04-28T04:42:17;96609.47;;;7.40;100.00
48563;BME280;34981;49.104;11.396;2023-04-28T04:45:14;96624.25;;;7.42;100.00
48563;BME280;34981;49.104;11.396;2023-04-28T04:47:41;96642.41;;;7.40;100.00
48563;BME280;34981;49.104;11.396;2023-04-28T04:50:09;96680.31;;;7.37;100.00
48563;BME280;34981;49.104;11.396;2023-04-28T04:52:37;96736.72;;;7.36;100.00
48563;BME280;34981;49.104;11.396;2023-04-28T04:55:04;96801.94;;;7.35;100.00
48563;BME280;34981;49.104;11.396;2023-04-28T04:57:32;96845.47;;;7.42;100.00
48563;BME280;34981;49.104;11.396;2023-04-28T05:00:22;96871.63;;;7.40;100.00
48563;BME280;34981;49.104;11.396;2023-04-28T05:02:49;96923.03;;;7.42;100.00
48563;BME280;34981;49.104;11.396;2023-04-28T05:05:17;96950.81;;;7.41;100.00
48563;BME280;34981;49.104;11.396;2023-04-28T05:08:04;97018.97;;;7.38;100.00
48563;BME280;34981;49.104;11.396;2023-04-28T05:10:31;97291.00;;;7.38;100.00
48563;BME280;34981;49.104;11.396;2023-04-28T05:13:01;97326.78;;;7.43;100.00
48563;BME280;34981;49.104;11.396;2023-04-28T05:15:28;97358.06;;;7.43;100.00
48563;BME280;34981;49.104;11.396;2023-04-28T05:18:15;97342.19;;;7.48;100.00
48563;BME280;34981;49.104;11.396;2023-04-28T05:20:43;97385.63;;;7.43;100.00
48563;BME280;34981;49.104;11.396;2023-04-28T05:23:11;97446.97;;;7.45;100.00
48563;BME280;34981;49.104;11.396;2023-04-28T05:25:38;97484.44;;;7.45;100.00
48563;BME280;34981;49.104;11.396;2023-04-28T05:28:07;97520.63;;;7.48;100.00
48563;BME280;34981;49.104;11.396;2023-04-28T05:30:35;97580.31;;;7.48;100.00
48563;BME280;34981;49.104;11.396;2023-04-28T05:33:02;97596.34;;;7.48;100.00
48563;BME280;34981;49.104;11.396;2023-04-28T05:35:29;97605.63;;;7.46;100.00
48563;BME280;34981;49.104;11.396;2023-04-28T05:37:57;97617.97;;;7.47;100.00
48563;BME280;34981;49.104;11.396;2023-04-28T05:40:25;97621.28;;;7.49;100.00
48563;BME280;34981;49.104;11.396;2023-04-28T05:42:54;97621.06;;;7.50;100.00
48563;BME280;34981;49.104;11.396;2023-04-28T05:45:21;97615.72;;;7.50;100.00
48563;BME280;34981;49.104;11.396;2023-04-28T05:47:48;97635.47;;;7.49;100.00
48563;BME280;34981;49.104;11.396;2023-04-28T05:50:16;97643.31;;;7.44;100.00
48563;BME280;34981;49.104;11.396;2023-04-28T05:52:43;97665.09;;;7.48;100.00
48563;BME280;34981;49.104;11.396;2023-04-28T05:55:10;97676.22;;;7.51;100.00
48563;BME280;34981;49.104;11.396;2023-04-28T05:57:38;97689.19;;;7.54;100.00
48563;BME280;34981;49.104;11.396;2023-04-28T06:00:19;97715.75;;;7.56;100.00
48563;BME280;34981;49.104;11.396;2023-04-28T06:02:47;97741.03;;;7.53;100.00
48563;BME280;34981;49.104;11.396;2023-04-28T06:05:14;97767.41;;;7.56;100.00
48563;BME280;34981;49.104;11.396;2023-04-28T06:07:43;97818.25;;;7.56;100.00
48563;BME280;34981;49.104;11.396;2023-04-28T06:10:10;97860.25;;;7.56;100.00
48563;BME280;34981;49.104;11.396;2023-04-28T06:12:37;97931.06;;;7.60;100.00
48563;BME280;34981;49.104;11.396;2023-04-28T06:15:05;97960.94;;;7.63;100.00
48563;BME280;34981;49.104;11.396;2023-04-28T06:17:33;98027.06;;;7.69;100.00
48563;BME280;34981;49.104;11.396;2023-04-28T06:20:00;98112.50;;;7.64;100.00
48563;BME280;34981;49.104;11.396;2023-04-28T06:22:27;98182.47;;;7.61;100.00
48563;BME280;34981;49.104;11.396;2023-04-28T06:24:54;98257.59;;;7.60;100.00
48563;BME280;34981;49.104;11.396;2023-04-28T06:27:29;98330.16;;;7.65;100.00
48563;BME280;34981;49.104;11.396;2023-04-28T06:29:58;98382.09;;;7.70;100.00
48563;BME280;34981;49.104;11.396;2023-04-28T06:32:25;98416.72;;;7.72;100.00
48563;BME280;34981;49.104;11.396;2023-04-28T06:34:53;98466.50;;;7.66;100.00
48563;BME280;34981;49.104;11.396;2023-04-28T06:37:22;98529.44;;;7.62;100.00
48563;BME280;34981;49.104;11.396;2023-04-28T06:39:49;98613.44;;;7.61;100.00
48563;BME280;34981;49.104;11.396;2023-04-28T06:42:16;98677.88;;;7.74;100.00
48563;BME280;34981;49.104;11.396;2023-04-28T06:44:52;98738.91;;;7.79;100.00
48563;BME280;34981;49.104;11.396;2023-04-28T06:47:19;98768.09;;;7.74;100.00
48563;BME280;34981;49.104;11.396;2023-04-28T06:49:46;98818.97;;;7.74;100.00
48563;BME280;34981;49.104;11.396;2023-04-28T06:52:15;98876.22;;;7.73;100.00
48563;BME280;34981;49.104;11.396;2023-04-28T06:54:43;98927.22;;;7.79;100.00
48563;BME280;34981;49.104;11.396;2023-04-28T06:57:10;98966.38;;;7.80;100.00
48563;BME280;34981;49.104;11.396;2023-04-28T06:59:37;98994.50;;;7.76;100.00
48563;BME280;34981;49.104;11.396;2023-04-28T07:02:04;99026.72;;;7.60;100.00
48563;BME280;34981;49.104;11.396;2023-04-28T07:04:31;99067.84;;;7.67;100.00
48563;BME280;34981;49.104;11.396;2023-04-28T07:06:58;99113.19;;;7.69;100.00
48563;BME280;34981;49.104;11.396;2023-04-28T07:09:25;99126.56;;;7.77;100.00
48563;BME280;34981;49.104;11.396;2023-04-28T07:11:53;99148.13;;;7.83;100.00
48563;BME280;34981;49.104;11.396;2023-04-28T07:14:20;99147.50;;;7.73;100.00
48563;BME280;34981;49.104;11.396;2023-04-28T07:16:47;99136.66;;;7.67;100.00
48563;BME280;34981;49.104;11.396;2023-04-28T07:19:14;99358.72;;;7.68;100.00
48563;BME280;34981;49.104;11.396;2023-04-28T07:21:42;99446.06;;;7.69;100.00
48563;BME280;34981;49.104;11.396;2023-04-28T07:24:09;99480.72;;;7.63;100.00
48563;BME280;34981;49.104;11.396;2023-04-28T07:26:36;99509.34;;;7.62;100.00
48563;BME280;34981;49.104;11.396;2023-04-28T07:29:03;99721.56;;;7.64;100.00
48563;BME280;34981;49.104;11.396;2023-04-28T07:31:30;99792.88;;;7.65;100.00
48563;BME280;34981;49.104;11.396;2023-04-28T07:33:57;99912.97;;;7.60;100.00
48563;BME280;34981;49.104;11.396;2023-04-28T07:36:24;99953.13;;;7.60;100.00
48563;BME280;34981;49.104;11.396;2023-04-28T07:38:52;99998.66;;;7.60;100.00
48563;BME280;34981;49.104;11.396;2023-04-28T07:41:19;100051.69;;;7.57;100.00
48563;BME280;34981;49.104;11.396;2023-04-28T07:43:47;100089.56;;;7.62;100.00
48563;BME280;34981;49.104;11.396;2023-04-28T07:46:14;100100.53;;;7.68;100.00
48563;BME280;34981;49.104;11.396;2023-04-28T07:48:41;100102.59;;;7.74;100.00
48563;BME280;34981;49.104;11.396;2023-04-28T07:51:08;100108.28;;;7.71;100.00
48563;BME280;34981;49.104;11.396;2023-04-28T07:53:35;100121.75;;;7.79;100.00
48563;BME280;34981;49.104;11.396;2023-04-28T07:56:02;100143.56;;;7.85;100.00
48563;BME280;34981;49.104;11.396;2023-04-28T07:58:30;100158.91;;;7.92;100.00
48563;BME280;34981;49.104;11.396;2023-04-28T08:00:57;100179.53;;;7.82;100.00
48563;BME280;34981;49.104;11.396;2023-04-28T08:03:24;100205.50;;;7.81;100.00
48563;BME280;34981;49.104;11.396;2023-04-28T08:05:52;100226.72;;;7.93;100.00
48563;BME280;34981;49.104;11.396;2023-04-28T08:08:19;100249.16;;;7.92;100.00
48563;BME280;34981;49.104;11.396;2023-04-28T08:10:46;100284.38;;;7.97;100.00
48563;BME280;34981;49.104;11.396;2023-04-28T08:13:13;100303.13;;;8.06;100.00
48563;BME280;34981;49.104;11.396;2023-04-28T08:15:42;100297.22;;;8.03;100.00
48563;BME280;34981;49.104;11.396;2023-04-28T08:18:09;100312.28;;;8.04;100.00
48563;BME280;34981;49.104;11.396;2023-04-28T08:20:37;100325.50;;;8.15;100.00
48563;BME280;34981;49.104;11.396;2023-04-28T08:23:04;100334.94;;;8.19;100.00
48563;BME280;34981;49.104;11.396;2023-04-28T08:25:31;100315.88;;;8.22;100.00
48563;BME280;34981;49.104;11.396;2023-04-28T08:27:58;100304.19;;;8.23;100.00
48563;BME280;34981;49.104;11.396;2023-04-28T08:30:26;100304.88;;;8.25;100.00
48563;BME280;34981;49.104;11.396;2023-04-28T08:32:53;100327.47;;;8.32;100.00
48563;BME280;34981;49.104;11.396;2023-04-28T08:35:20;100313.59;;;8.37;100.00
48563;BME280;34981;49.104;11.396;2023-04-28T08:37:47;100311.63;;;8.29;100.00
48563;BME280;34981;49.104;11.396;2023-04-28T08:40:15;100310.53;;;8.32;100.00
48563;BME280;34981;49.104;11.396;2023-04-28T08:42:42;100314.59;;;8.36;100.00
48563;BME280;34981;49.104;11.396;2023-04-28T08:45:12;100315.56;;;8.35;100.00
48563;BME280;34981;49.104;11.396;2023-04-28T08:47:39;100319.81;;;8.37;100.00
48563;BME280;34981;49.104;11.396;2023-04-28T08:50:14;100315.53;;;8.44;100.00
48563;BME280;34981;49.104;11.396;2023-04-28T08:52:41;100314.06;;;8.50;100.00
48563;BME280;34981;49.104;11.396;2023-04-28T08:55:10;100312.38;;;8.49;100.00
48563;BME280;34981;49.104;11.396;2023-04-28T08:57:40;100313.31;;;8.40;100.00
48563;BME280;34981;49.104;11.396;2023-04-28T09:00:09;100323.63;;;8.35;100.00
48563;BME280;34981;49.104;11.396;2023-04-28T09:02:36;100346.88;;;8.44;100.00
48563;BME280;34981;49.104;11.396;2023-04-28T09:05:07;100352.47;;;8.50;100.00
48563;BME280;34981;49.104;11.396;2023-04-28T09:07:35;100345.72;;;8.46;100.00
48563;BME280;34981;49.104;11.396;2023-04-28T09:10:19;100341.25;;;8.37;100.00
48563;BME280;34981;49.104;11.396;2023-04-28T09:12:47;100352.69;;;8.39;100.00
48563;BME280;34981;49.104;11.396;2023-04-28T09:17:53;100410.34;;;8.53;100.00
48563;BME280;34981;49.104;11.396;2023-04-28T09:20:21;100441.09;;;8.58;100.00
48563;BME280;34981;49.104;11.396;2023-04-28T09:22:49;100461.97;;;8.65;100.00
48563;BME280;34981;49.104;11.396;2023-04-28T09:25:17;100483.53;;;8.73;100.00
48563;BME280;34981;49.104;11.396;2023-04-28T09:27:44;100497.78;;;8.83;100.00
48563;BME280;34981;49.104;11.396;2023-04-28T09:30:12;100507.50;;;8.84;100.00
48563;BME280;34981;49.104;11.396;2023-04-28T09:32:39;100515.13;;;8.79;100.00
48563;BME280;34981;49.104;11.396;2023-04-28T09:35:06;100552.28;;;8.83;100.00
48563;BME280;34981;49.104;11.396;2023-04-28T09:37:34;100571.22;;;8.82;100.00
48563;BME280;34981;49.104;11.396;2023-04-28T09:40:07;100577.28;;;8.84;100.00
48563;BME280;34981;49.104;11.396;2023-04-28T09:42:39;100593.66;;;8.81;100.00
48563;BME280;34981;49.104;11.396;2023-04-28T09:47:35;100644.78;;;8.89;100.00
48563;BME280;34981;49.104;11.396;2023-04-28T09:50:04;100650.28;;;8.87;100.00
48563;BME280;34981;49.104;11.396;2023-04-28T09:52:32;100661.00;;;8.97;100.00
48563;BME280;34981;49.104;11.396;2023-04-28T09:55:01;100664.28;;;8.91;100.00
48563;BME280;34981;49.104;11.396;2023-04-28T09:57:30;100691.53;;;8.96;100.00
48563;BME280;34981;49.104;11.396;2023-04-28T10:00:00;100704.81;;;8.97;100.00
48563;BME280;34981;49.104;11.396;2023-04-28T10:02:36;100725.28;;;8.98;100.00
48563;BME280;34981;49.104;11.396;2023-04-28T10:05:07;100733.91;;;9.02;100.00
48563;BME280;34981;49.104;11.396;2023-04-28T10:07:36;100743.91;;;9.00;100.00
48563;BME280;34981;49.104;11.396;2023-04-28T10:10:03;100772.59;;;9.09;100.00
48563;BME280;34981;49.104;11.396;2023-04-28T10:12:32;100769.06;;;9.09;100.00
48563;BME280;34981;49.104;11.396;2023-04-28T10:14:59;100799.00;;;9.14;100.00
48563;BME280;34981;49.104;11.396;2023-04-28T10:17:27;100805.81;;;9.08;100.00
48563;BME280;34981;49.104;11.396;2023-04-28T10:19:55;100815.44;;;9.11;100.00
48563;BME280;34981;49.104;11.396;2023-04-28T10:27:39;100864.75;;;9.19;100.00
48563;BME280;34981;49.104;11.396;2023-04-28T10:30:14;100876.91;;;9.23;100.00
48563;BME280;34981;49.104;11.396;2023-04-28T10:32:44;100888.34;;;9.25;100.00
48563;BME280;34981;49.104;11.396;2023-04-28T10:43:06;100997.66;;;9.54;100.00
48563;BME280;34981;49.104;11.396;2023-04-28T10:49:09;101029.06;;;9.72;100.00
48563;BME280;34981;49.104;11.396;2023-04-28T10:56:15;101120.78;;;9.89;100.00
48563;BME280;34981;49.104;11.396;2023-04-28T10:58:44;101136.63;;;9.92;100.00
48563;BME280;34981;49.104;11.396;2023-04-28T11:06:23;101225.81;;;10.06;100.00
48563;BME280;34981;49.104;11.396;2023-04-28T11:08:55;101247.97;;;10.20;100.00
48563;BME280;34981;49.104;11.396;2023-04-28T11:11:27;100157.06;;;10.27;100.00
48563;BME280;34981;49.104;11.396;2023-04-28T11:14:40;100154.88;;;10.38;100.00
48563;BME280;34981;49.104;11.396;2023-04-28T11:16:51;100159.75;;;10.35;100.00
48563;BME280;34981;49.104;11.396;2023-04-28T11:19:23;100172.88;;;10.30;100.00
48563;BME280;34981;49.104;11.396;2023-04-28T11:21:54;100207.53;;;10.41;100.00
48563;BME280;34981;49.104;11.396;2023-04-28T11:24:22;100214.41;;;10.35;100.00
48563;BME280;34981;49.104;11.396;2023-04-28T11:26:53;100232.41;;;10.35;100.00
48563;BME280;34981;49.104;11.396;2023-04-28T11:29:33;100257.94;;;10.39;100.00
48563;BME280;34981;49.104;11.396;2023-04-28T11:32:05;100255.97;;;10.49;100.00
48563;BME280;34981;49.104;11.396;2023-04-28T11:34:33;100289.63;;;10.61;100.00
48563;BME280;34981;49.104;11.396;2023-04-28T11:37:01;100292.47;;;10.60;100.00
48563;BME280;34981;49.104;11.396;2023-04-28T11:39:29;100298.66;;;10.52;100.00
48563;BME280;34981;49.104;11.396;2023-04-28T11:41:57;100320.03;;;10.53;100.00
48563;BME280;34981;49.104;11.396;2023-04-28T11:44:25;100340.44;;;10.64;100.00
48563;BME280;34981;49.104;11.396;2023-04-28T11:46:54;100355.63;;;10.73;100.00
48563;BME280;34981;49.104;11.396;2023-04-28T11:49:22;100368.53;;;10.70;100.00
48563;BME280;34981;49.104;11.396;2023-04-28T11:51:55;100381.72;;;10.81;100.00
48563;BME280;34981;49.104;11.396;2023-04-28T11:54:24;100388.66;;;10.91;100.00
48563;BME280;34981;49.104;11.396;2023-04-28T11:56:52;100394.22;;;10.98;100.00
48563;BME280;34981;49.104;11.396;2023-04-28T11:59:23;100406.88;;;11.06;100.00
48563;BME280;34981;49.104;11.396;2023-04-28T12:02:05;100408.59;;;11.15;100.00
48563;BME280;34981;49.104;11.396;2023-04-28T12:04:34;100410.75;;;11.19;100.00
48563;BME280;34981;49.104;11.396;2023-04-28T12:07:03;100414.00;;;11.23;100.00
48563;BME280;34981;49.104;11.396;2023-04-28T12:09:31;100413.63;;;11.26;100.00
48563;BME280;34981;49.104;11.396;2023-04-28T12:11:59;100413.63;;;11.26;100.00
48563;BME280;34981;49.104;11.396;2023-04-28T12:14:29;100425.44;;;11.33;100.00
48563;BME280;34981;49.104;11.396;2023-04-28T12:16:57;100436.94;;;11.43;100.00
48563;BME280;34981;49.104;11.396;2023-04-28T12:19:24;100437.63;;;11.45;100.00
48563;BME280;34981;49.104;11.396;2023-04-28T12:21:59;100446.34;;;11.47;100.00
48563;BME280;34981;49.104;11.396;2023-04-28T12:24:26;100412.00;;;11.41;100.00
48563;BME280;34981;49.104;11.396;2023-04-28T12:26:54;100393.13;;;11.49;100.00
48563;BME280;34981;49.104;11.396;2023-04-28T12:29:39;100368.88;;;11.49;100.00
48563;BME280;34981;49.104;11.396;2023-04-28T12:32:09;100398.38;;;11.59;100.00
48563;BME280;34981;49.104;11.396;2023-04-28T12:34:37;100411.50;;;11.70;100.00
48563;BME280;34981;49.104;11.396;2023-04-28T12:37:06;100392.16;;;11.66;100.00
48563;BME280;34981;49.104;11.396;2023-04-28T12:39:36;100397.56;;;11.75;100.00
48563;BME280;34981;49.104;11.396;2023-04-28T12:42:06;100407.84;;;11.87;100.00
48563;BME280;34981;49.104;11.396;2023-04-28T12:44:34;100386.75;;;11.91;100.00
48563;BME280;34981;49.104;11.396;2023-04-28T12:47:02;100384.22;;;12.05;100.00
48563;BME280;34981;49.104;11.396;2023-04-28T12:49:29;100394.84;;;12.07;100.00
48563;BME280;34981;49.104;11.396;2023-04-28T12:51:57;100394.84;;;12.15;100.00
48563;BME280;34981;49.104;11.396;2023-04-28T12:54:26;100380.00;;;12.19;100.00
48563;BME280;34981;49.104;11.396;2023-04-28T12:56:53;100365.13;;;12.23;100.00
48563;BME280;34981;49.104;11.396;2023-04-28T12:59:20;100364.28;;;12.31;100.00
48563;BME280;34981;49.104;11.396;2023-04-28T13:01:48;100359.06;;;12.29;100.00
48563;BME280;34981;49.104;11.396;2023-04-28T13:04:16;100358.72;;;12.32;100.00
48563;BME280;34981;49.104;11.396;2023-04-28T13:06:44;100348.41;;;12.28;100.00
48563;BME280;34981;49.104;11.396;2023-04-28T13:09:12;100353.63;;;12.37;100.00
48563;BME280;34981;49.104;11.396;2023-04-28T13:11:41;100342.81;;;12.45;100.00
48563;BME280;34981;49.104;11.396;2023-04-28T13:14:08;100354.59;;;12.53;100.00
48563;BME280;34981;49.104;11.396;2023-04-28T13:16:35;100348.84;;;12.56;100.00
48563;BME280;34981;49.104;11.396;2023-04-28T13:19:03;100357.72;;;12.64;100.00
48563;BME280;34981;49.104;11.396;2023-04-28T13:21:35;100337.31;;;12.70;100.00
48563;BME280;34981;49.104;11.396;2023-04-28T13:24:05;100344.56;;;12.69;100.00